createdAt,value
2019-05-01T00:00:37.088Z,95656.89
2019-05-01T00:01:59.961Z,95657.84
2019-05-01T00:03:21.270Z,95658.61
2019-05-01T00:04:32.327Z,95656.14
2019-05-01T00:05:37.542Z,95652.74
2019-05-01T00:06:42.715Z,95656.30
2019-05-01T00:07:46.337Z,95651.87
2019-05-01T00:08:49.863Z,95654.88
2019-05-01T00:09:53.374Z,95656.92
2019-05-01T00:10:56.881Z,95654.66
2019-05-01T00:12:00.413Z,95652.97
2019-05-01T00:13:05.498Z,95651.45
2019-05-01T00:14:09.795Z,95652.60
2019-05-01T00:15:13.574Z,95650.28
2019-05-01T00:16:17.369Z,95654.03
2019-05-01T00:17:21.447Z,95641.25
2019-05-01T00:18:25.339Z,95645.16
2019-05-01T00:19:28.849Z,95644.58
2019-05-01T00:20:32.377Z,95645.70
2019-05-01T00:21:35.876Z,95644.53
2019-05-01T00:22:39.321Z,95643.25
2019-05-01T00:23:42.789Z,95647.02
2019-05-01T00:24:46.228Z,95644.69
2019-05-01T00:25:49.671Z,95639.45
2019-05-01T00:26:53.177Z,95639.45
2019-05-01T00:27:56.621Z,95638.48
2019-05-01T00:29:00.156Z,95632.27
2019-05-01T00:30:05.331Z,95632.27
2019-05-01T00:31:08.839Z,95636.73
2019-05-01T00:32:12.397Z,95628.88
2019-05-01T00:33:15.907Z,95625.13
2019-05-01T00:34:19.380Z,95626.95
2019-05-01T00:35:22.885Z,95626.95
2019-05-01T00:36:26.320Z,95635.38
2019-05-01T00:37:29.758Z,95626.95
2019-05-01T00:38:33.321Z,95627.34
2019-05-01T00:39:36.763Z,95631.05
2019-05-01T00:40:40.249Z,95628.98
2019-05-01T00:41:43.631Z,95628.98
2019-05-01T00:42:47.138Z,95623.34
2019-05-01T00:43:50.765Z,95625.57
2019-05-01T00:44:54.352Z,95627.27
2019-05-01T00:45:57.793Z,95624.34
2019-05-01T00:47:01.298Z,95632.45
2019-05-01T00:48:04.813Z,95624.41
2019-05-01T00:49:10.790Z,95623.26
2019-05-01T00:50:14.319Z,95615.16
2019-05-01T00:51:17.760Z,95615.16
2019-05-01T00:52:21.265Z,95615.33
2019-05-01T00:53:24.781Z,95615.33
2019-05-01T00:54:29.077Z,95615.06
2019-05-01T00:55:40.008Z,95612.21
2019-05-01T00:56:45.344Z,95612.21
2019-05-01T00:57:53.269Z,95615.22
2019-05-01T00:59:09.096Z,95614.75
2019-05-01T01:00:42.398Z,95607.66
2019-05-01T01:01:48.731Z,95607.66
2019-05-01T01:02:52.455Z,95613.99
2019-05-01T01:03:55.920Z,95616.06
2019-05-01T01:04:59.364Z,95611.03
2019-05-01T01:06:03.348Z,95609.20
2019-05-01T01:07:06.920Z,95607.58
2019-05-01T01:08:10.428Z,95608.98
2019-05-01T01:09:14.412Z,95608.98
2019-05-01T01:10:17.849Z,95606.52
2019-05-01T01:11:21.358Z,95604.51
2019-05-01T01:12:24.874Z,95608.28
2019-05-01T01:13:28.377Z,95610.35
2019-05-01T01:14:31.835Z,95607.58
2019-05-01T01:15:35.375Z,95610.12
2019-05-01T01:16:38.829Z,95601.66
2019-05-01T01:17:42.253Z,95601.66
2019-05-01T01:18:46.121Z,95603.52
2019-05-01T01:19:49.587Z,95609.33
2019-05-01T01:20:53.167Z,95599.56
2019-05-01T01:21:56.939Z,95607.28
2019-05-01T01:23:00.515Z,95597.31
2019-05-01T01:24:04.381Z,95597.31
2019-05-01T01:25:08.446Z,95603.48
2019-05-01T01:26:12.021Z,95601.97
2019-05-01T01:27:15.907Z,95603.07
2019-05-01T01:28:19.603Z,95602.28
2019-05-01T01:29:23.181Z,95607.52
2019-05-01T01:30:26.776Z,95599.33
2019-05-01T01:31:30.293Z,95595.13
2019-05-01T01:32:33.861Z,95596.59
2019-05-01T01:33:37.370Z,95595.44
2019-05-01T01:34:40.812Z,95595.44
2019-05-01T01:35:44.395Z,95598.48
2019-05-01T01:36:47.973Z,95594.86
2019-05-01T01:37:51.419Z,95600.73
2019-05-01T01:38:55.010Z,95598.64
2019-05-01T01:39:58.709Z,95592.25
2019-05-01T01:41:02.272Z,95601.02
2019-05-01T01:42:06.214Z,95596.61
2019-05-01T01:43:27.422Z,95598.31
2019-05-01T01:44:32.636Z,95600.63
2019-05-01T01:45:37.868Z,95596.59
2019-05-01T01:46:43.585Z,95596.59
2019-05-01T01:48:05.199Z,95593.64
2019-05-01T01:49:08.975Z,95582.34
2019-05-01T01:50:12.577Z,95591.33
2019-05-01T01:51:16.357Z,95587.31
2019-05-01T01:52:19.932Z,95587.31
2019-05-01T01:53:24.505Z,95588.84
2019-05-01T01:54:28.279Z,95587.53
2019-05-01T01:55:31.970Z,95584.70
2019-05-01T01:56:35.581Z,95585.09
2019-05-01T01:57:39.148Z,95585.09
2019-05-01T01:58:42.824Z,95583.36
2019-05-01T01:59:46.401Z,95586.31
2019-05-01T02:01:09.296Z,95583.88
2019-05-01T02:02:07.868Z,95588.55
2019-05-01T02:03:11.403Z,95588.55
2019-05-01T02:04:19.683Z,95578.93
2019-05-01T02:05:24.845Z,95575.00
2019-05-01T02:06:28.461Z,95580.30
2019-05-01T02:07:31.988Z,95579.75
2019-05-01T02:08:35.578Z,95576.97
2019-05-01T02:09:39.244Z,95576.97
2019-05-01T02:10:43.495Z,95573.59
2019-05-01T02:11:50.126Z,95582.76
2019-05-01T02:12:53.704Z,95580.45
2019-05-01T02:13:57.581Z,95580.45
2019-05-01T02:15:01.179Z,95576.70
2019-05-01T02:16:04.753Z,95574.63
2019-05-01T02:17:08.332Z,95575.83
2019-05-01T02:18:11.909Z,95570.90
2019-05-01T02:19:15.483Z,95572.60
2019-05-01T02:20:19.264Z,95557.11
2019-05-01T02:21:22.867Z,95557.11
2019-05-01T02:22:26.371Z,95572.63
2019-05-01T02:23:29.821Z,95573.23
2019-05-01T02:24:33.259Z,95573.23
2019-05-01T02:25:38.500Z,95578.48
2019-05-01T02:26:49.783Z,95578.48
2019-05-01T02:28:11.443Z,95570.38
2019-05-01T02:29:16.660Z,95563.89
2019-05-01T02:30:21.423Z,95563.89
2019-05-01T02:31:32.789Z,95565.69
2019-05-01T02:32:36.900Z,95564.05
2019-05-01T02:33:43.162Z,95559.91
2019-05-01T02:34:47.698Z,95559.91
2019-05-01T02:35:51.379Z,95561.03
2019-05-01T02:36:57.289Z,95557.41
2019-05-01T02:38:01.659Z,95554.80
2019-05-01T02:39:11.155Z,95553.28
2019-05-01T02:40:41.735Z,95553.28
2019-05-01T02:41:46.868Z,95549.69
2019-05-01T02:42:51.427Z,95552.31
2019-05-01T02:43:57.953Z,95548.72
2019-05-01T02:45:04.091Z,95547.07
2019-05-01T02:46:10.701Z,95553.61
2019-05-01T02:47:17.170Z,95552.70
2019-05-01T02:48:22.760Z,95554.01
2019-05-01T02:49:43.903Z,95554.01
2019-05-01T02:50:50.527Z,95548.02
2019-05-01T02:51:54.420Z,95552.88
2019-05-01T02:52:58.335Z,95550.60
2019-05-01T02:54:02.373Z,95555.41
2019-05-01T02:55:09.075Z,95543.60
2019-05-01T02:56:22.533Z,95550.14
2019-05-01T02:57:27.631Z,95547.69
2019-05-01T02:58:31.410Z,95555.13
2019-05-01T02:59:36.689Z,95551.52
2019-05-01T03:00:40.464Z,95550.02
2019-05-01T03:01:47.878Z,95550.72
2019-05-01T03:02:49.858Z,95553.27
2019-05-01T03:03:55.339Z,95545.97
2019-05-01T03:04:59.608Z,95548.98
2019-05-01T03:06:03.174Z,95550.69
2019-05-01T03:07:08.075Z,95545.57
2019-05-01T03:08:11.660Z,95545.57
2019-05-01T03:09:16.341Z,95550.05
2019-05-01T03:10:20.230Z,95549.80
2019-05-01T03:11:23.821Z,95550.55
2019-05-01T03:12:30.620Z,95547.94
2019-05-01T03:13:35.120Z,95549.44
2019-05-01T03:14:41.614Z,95552.05
2019-05-01T03:15:45.281Z,95546.81
2019-05-01T03:16:51.755Z,95551.14
2019-05-01T03:17:57.018Z,95551.14
2019-05-01T03:19:03.031Z,95546.73
2019-05-01T03:20:26.799Z,95547.97
2019-05-01T03:21:37.779Z,95551.72
2019-05-01T03:22:43.636Z,95551.72
2019-05-01T03:23:54.750Z,95549.95
2019-05-01T03:24:58.964Z,95549.95
2019-05-01T03:26:02.647Z,95555.58
2019-05-01T03:27:06.327Z,95550.23
2019-05-01T03:28:09.928Z,95551.91
2019-05-01T03:29:13.680Z,95548.53
2019-05-01T03:30:17.262Z,95551.26
2019-05-01T03:31:20.702Z,95551.66
2019-05-01T03:32:24.287Z,95552.38
2019-05-01T03:33:28.140Z,95552.38
2019-05-01T03:34:31.799Z,95557.22
2019-05-01T03:35:35.599Z,95553.08
2019-05-01T03:36:39.515Z,95553.29
2019-05-01T03:37:43.196Z,95556.30
2019-05-01T03:38:46.997Z,95554.67
2019-05-01T03:39:50.980Z,95548.86
2019-05-01T03:40:54.480Z,95551.08
2019-05-01T03:41:58.581Z,95548.06
2019-05-01T03:43:02.148Z,95551.26
2019-05-01T03:44:05.848Z,95552.63
2019-05-01T03:45:09.421Z,95550.86
2019-05-01T03:46:13.001Z,95547.48
2019-05-01T03:47:16.675Z,95547.48
2019-05-01T03:48:20.376Z,95545.02
2019-05-01T03:49:23.959Z,95541.09
2019-05-01T03:50:27.539Z,95537.61
2019-05-01T03:51:31.111Z,95542.58
2019-05-01T03:52:34.889Z,95537.90
2019-05-01T03:53:38.468Z,95539.06
2019-05-01T03:54:42.368Z,95537.14
2019-05-01T03:55:46.248Z,95537.50
2019-05-01T03:56:49.813Z,95538.41
2019-05-01T03:57:53.593Z,95534.09
2019-05-01T03:58:57.283Z,95536.70
2019-05-01T04:00:01.456Z,95534.27
2019-05-01T04:01:06.686Z,95534.23
2019-05-01T04:02:12.733Z,95533.47
2019-05-01T04:03:29.499Z,95527.05
2019-05-01T04:04:33.029Z,95534.38
2019-05-01T04:05:36.680Z,95534.38
2019-05-01T04:06:40.344Z,95537.61
2019-05-01T04:07:44.124Z,95531.80
2019-05-01T04:08:48.117Z,95532.02
2019-05-01T04:09:51.747Z,95533.58
2019-05-01T04:10:55.900Z,95534.67
2019-05-01T04:11:59.579Z,95534.89
2019-05-01T04:13:03.147Z,95538.48
2019-05-01T04:14:06.824Z,95538.48
2019-05-01T04:15:10.525Z,95535.14
2019-05-01T04:16:14.571Z,95534.34
2019-05-01T04:17:22.992Z,95534.48
2019-05-01T04:18:27.637Z,95535.00
2019-05-01T04:19:31.300Z,95534.78
2019-05-01T04:20:34.910Z,95542.98
2019-05-01T04:21:40.314Z,95539.61
2019-05-01T04:22:45.085Z,95539.06
2019-05-01T04:23:49.270Z,95543.13
2019-05-01T04:24:52.879Z,95544.63
2019-05-01T04:25:56.499Z,95547.85
2019-05-01T04:27:00.684Z,95545.78
2019-05-01T04:28:22.152Z,95542.84
2019-05-01T04:29:27.355Z,95545.64
2019-05-01T04:30:33.102Z,95545.23
2019-05-01T04:31:44.272Z,95550.68
2019-05-01T04:32:52.597Z,95552.47
2019-05-01T04:33:55.676Z,95549.84
2019-05-01T04:35:01.315Z,95553.04
2019-05-01T04:36:12.797Z,95555.14
2019-05-01T04:37:18.042Z,95550.68
2019-05-01T04:38:21.825Z,95557.11
2019-05-01T04:39:25.602Z,95557.69
2019-05-01T04:40:29.158Z,95552.64
2019-05-01T04:41:34.078Z,95563.43
2019-05-01T04:42:37.652Z,95567.16
2019-05-01T04:43:41.227Z,95567.09
2019-05-01T04:44:45.377Z,95565.64
2019-05-01T04:45:49.478Z,95561.94
2019-05-01T04:46:53.889Z,95565.53
2019-05-01T04:47:57.522Z,95562.02
2019-05-01T04:49:01.682Z,95563.43
2019-05-01T04:50:06.923Z,95560.41
2019-05-01T04:51:10.635Z,95559.32
2019-05-01T04:52:14.409Z,95560.67
2019-05-01T04:53:18.414Z,95565.14
2019-05-01T04:54:22.183Z,95560.70
2019-05-01T04:55:25.773Z,95562.77
2019-05-01T04:56:29.367Z,95566.19
2019-05-01T04:57:33.341Z,95565.28
2019-05-01T04:58:37.017Z,95571.52
2019-05-01T04:59:40.903Z,95579.44
2019-05-01T05:00:44.610Z,95577.25
2019-05-01T05:01:56.688Z,95582.13
2019-05-01T05:03:09.371Z,95572.53
2019-05-01T05:04:12.988Z,95573.84
2019-05-01T05:05:16.562Z,95578.92
2019-05-01T05:06:20.157Z,95573.30
2019-05-01T05:07:23.929Z,95579.26
2019-05-01T05:08:27.708Z,95576.20
2019-05-01T05:09:42.554Z,95578.91
2019-05-01T05:10:47.083Z,95581.02
2019-05-01T05:11:52.559Z,95576.70
2019-05-01T05:13:12.714Z,95585.64
2019-05-01T05:14:21.223Z,95582.23
2019-05-01T05:15:29.263Z,95582.34
2019-05-01T05:16:52.206Z,95580.92
2019-05-01T05:17:55.986Z,95584.05
2019-05-01T05:18:59.563Z,95584.18
2019-05-01T05:20:04.841Z,95582.33
2019-05-01T05:21:08.735Z,95584.98
2019-05-01T05:22:12.318Z,95590.09
2019-05-01T05:23:16.187Z,95591.10
2019-05-01T05:24:19.694Z,95591.10
2019-05-01T05:25:23.674Z,95584.71
2019-05-01T05:26:27.569Z,95593.35
2019-05-01T05:27:31.548Z,95594.36
2019-05-01T05:28:36.021Z,95584.11
2019-05-01T05:29:39.599Z,95587.97
2019-05-01T05:30:44.565Z,95587.97
2019-05-01T05:31:49.116Z,95582.00
2019-05-01T05:32:55.003Z,95585.84
2019-05-01T05:34:00.581Z,95591.56
2019-05-01T05:35:05.624Z,95590.83
2019-05-01T05:36:11.475Z,95587.70
2019-05-01T05:37:22.042Z,95592.75
2019-05-01T05:38:29.841Z,95587.70
2019-05-01T05:39:35.858Z,95590.74
2019-05-01T05:40:39.831Z,95590.74
2019-05-01T05:41:45.620Z,95595.06
2019-05-01T05:42:49.196Z,95598.38
2019-05-01T05:43:53.271Z,95586.88
2019-05-01T05:44:56.952Z,95592.35
2019-05-01T05:46:00.525Z,95590.13
2019-05-01T05:47:04.224Z,95590.13
2019-05-01T05:48:08.001Z,95592.59
2019-05-01T05:49:11.679Z,95596.00
2019-05-01T05:50:18.349Z,95596.00
2019-05-01T05:51:41.850Z,95591.92
2019-05-01T05:52:50.132Z,95600.56
2019-05-01T05:54:13.115Z,95599.73
2019-05-01T05:55:18.265Z,95593.95
2019-05-01T05:56:25.718Z,95598.14
2019-05-01T05:57:36.285Z,95591.56
2019-05-01T05:58:55.201Z,95591.56
2019-05-01T06:00:15.484Z,95596.16
2019-05-01T06:01:24.554Z,95602.94
2019-05-01T06:02:37.693Z,95598.64
2019-05-01T06:03:45.841Z,95600.55
2019-05-01T06:04:53.971Z,95600.21
2019-05-01T06:06:07.931Z,95600.21
2019-05-01T06:07:25.207Z,95601.73
2019-05-01T06:08:31.613Z,95604.74
2019-05-01T06:09:48.520Z,95604.35
2019-05-01T06:10:53.542Z,95600.80
2019-05-01T06:12:04.866Z,95600.80
2019-05-01T06:13:17.865Z,95599.50
2019-05-01T06:14:26.898Z,95599.50
2019-05-01T06:15:36.668Z,95594.63
2019-05-01T06:16:54.007Z,95594.63
2019-05-01T06:18:04.023Z,95591.33
2019-05-01T06:19:25.556Z,95594.34
2019-05-01T06:20:30.803Z,95590.48
2019-05-01T06:21:36.009Z,95591.59
2019-05-01T06:22:58.424Z,95594.11
2019-05-01T06:24:07.322Z,95594.11
2019-05-01T06:25:22.408Z,95571.55
2019-05-01T06:26:31.956Z,95581.63
2019-05-01T06:27:36.438Z,95588.26
2019-05-01T06:28:40.012Z,95598.21
2019-05-01T06:29:44.107Z,95599.54
2019-05-01T06:30:48.889Z,95595.22
2019-05-01T06:31:54.022Z,95594.45
2019-05-01T06:32:57.706Z,95594.83
2019-05-01T06:34:01.891Z,95591.67
2019-05-01T06:35:07.108Z,95592.66
2019-05-01T06:36:13.268Z,95590.26
2019-05-01T06:37:16.018Z,95589.33
2019-05-01T06:38:19.600Z,95590.27
2019-05-01T06:39:23.505Z,95590.27
2019-05-01T06:40:40.919Z,95589.72
2019-05-01T06:41:44.565Z,95595.40
2019-05-01T06:42:50.056Z,95590.76
2019-05-01T06:43:57.041Z,95590.77
2019-05-01T06:45:13.004Z,95594.72
2019-05-01T06:46:22.030Z,95599.23
2019-05-01T06:47:26.260Z,95589.90
2019-05-01T06:48:33.287Z,95589.90
2019-05-01T06:49:55.625Z,95597.44
2019-05-01T06:51:17.815Z,95598.77
2019-05-01T06:52:24.940Z,95593.19
2019-05-01T06:53:28.945Z,95594.49
2019-05-01T06:54:34.012Z,95600.12
2019-05-01T06:55:38.009Z,95594.70
2019-05-01T06:56:42.605Z,95594.49
2019-05-01T06:57:46.486Z,95599.95
2019-05-01T06:58:51.038Z,95596.95
2019-05-01T06:59:57.015Z,95589.67
2019-05-01T07:01:00.697Z,95594.77
2019-05-01T07:02:04.438Z,95598.36
2019-05-01T07:03:10.455Z,95588.80
2019-05-01T07:04:14.222Z,95590.70
2019-05-01T07:05:20.010Z,95598.80
2019-05-01T07:06:26.061Z,95596.55
2019-05-01T07:07:29.441Z,95602.21
2019-05-01T07:08:34.236Z,95590.16
2019-05-01T07:09:38.772Z,95592.19
2019-05-01T07:10:43.944Z,95592.02
2019-05-01T07:11:52.839Z,95595.98
2019-05-01T07:12:54.446Z,95593.92
2019-05-01T07:13:58.417Z,95590.57
2019-05-01T07:15:04.365Z,95590.22
2019-05-01T07:16:07.949Z,95596.62
2019-05-01T07:17:13.509Z,95596.83
2019-05-01T07:18:18.850Z,95592.30
2019-05-01T07:19:23.967Z,95592.30
2019-05-01T07:20:47.324Z,95591.75
2019-05-01T07:21:51.448Z,95594.55
2019-05-01T07:22:55.690Z,95594.58
2019-05-01T07:23:59.469Z,95594.20
2019-05-01T07:25:04.220Z,95590.46
2019-05-01T07:26:09.962Z,95590.64
2019-05-01T07:27:13.938Z,95582.05
2019-05-01T07:28:17.618Z,95582.20
2019-05-01T07:29:22.836Z,95576.36
2019-05-01T07:30:33.712Z,95588.39
2019-05-01T07:31:37.309Z,95582.27
2019-05-01T07:32:42.762Z,95583.19
2019-05-01T07:33:51.091Z,95589.03
2019-05-01T07:34:56.969Z,95582.11
2019-05-01T07:35:58.037Z,95582.66
2019-05-01T07:37:02.009Z,95580.41
2019-05-01T07:38:05.618Z,95585.49
2019-05-01T07:39:14.575Z,95586.80
2019-05-01T07:40:15.378Z,95579.67
2019-05-01T07:41:18.837Z,95590.94
2019-05-01T07:42:27.093Z,95586.65
2019-05-01T07:43:32.517Z,95585.53
2019-05-01T07:44:37.736Z,95586.09
2019-05-01T07:46:02.332Z,95584.77
2019-05-01T07:47:13.508Z,95589.65
2019-05-01T07:48:20.077Z,95588.36
2019-05-01T07:49:26.566Z,95585.72
2019-05-01T07:50:32.742Z,95578.78
2019-05-01T07:51:37.740Z,95578.20
2019-05-01T07:52:42.606Z,95580.66
2019-05-01T07:53:46.583Z,95584.61
2019-05-01T07:54:50.763Z,95581.23
2019-05-01T07:55:54.437Z,95581.61
2019-05-01T07:56:58.787Z,95578.80
2019-05-01T07:58:03.746Z,95576.92
2019-05-01T07:59:07.170Z,95578.78
2019-05-01T08:00:16.133Z,95574.27
2019-05-01T08:01:21.280Z,95579.55
2019-05-01T08:02:25.902Z,95578.80
2019-05-01T08:03:30.181Z,95579.56
2019-05-01T08:04:36.417Z,95587.05
2019-05-01T08:05:40.785Z,95579.36
2019-05-01T08:06:44.165Z,95577.86
2019-05-01T08:07:47.662Z,95581.25
2019-05-01T08:08:51.103Z,95581.63
2019-05-01T08:09:54.581Z,95577.48
2019-05-01T08:10:59.952Z,95577.30
2019-05-01T08:12:03.419Z,95578.77
2019-05-01T08:13:07.030Z,95583.66
2019-05-01T08:14:12.060Z,95578.97
2019-05-01T08:15:15.802Z,95581.98
2019-05-01T08:16:19.321Z,95585.75
2019-05-01T08:17:24.230Z,95588.38
2019-05-01T08:18:47.348Z,95590.44
2019-05-01T08:19:58.119Z,95575.01
2019-05-01T08:21:12.101Z,95582.52
2019-05-01T08:22:17.244Z,95579.69
2019-05-01T08:23:20.709Z,95585.16
2019-05-01T08:24:24.734Z,95578.56
2019-05-01T08:25:28.690Z,95581.95
2019-05-01T08:26:33.490Z,95578.95
2019-05-01T08:27:41.471Z,95577.63
2019-05-01T08:29:03.067Z,95578.37
2019-05-01T08:30:23.069Z,95578.53
2019-05-01T08:31:34.676Z,95580.22
2019-05-01T08:32:55.920Z,95578.13
2019-05-01T08:34:01.098Z,95564.59
2019-05-01T08:35:08.752Z,95575.30
2019-05-01T08:36:13.491Z,95573.63
2019-05-01T08:37:17.938Z,95570.03
2019-05-01T08:38:22.634Z,95567.39
2019-05-01T08:39:26.546Z,95576.03
2019-05-01T08:40:30.509Z,95575.28
2019-05-01T08:41:34.337Z,95570.38
2019-05-01T08:42:42.413Z,95568.30
2019-05-01T08:43:43.031Z,95569.83
2019-05-01T08:44:48.701Z,95566.83
2019-05-01T08:45:57.048Z,95564.01
2019-05-01T08:47:11.061Z,95561.72
2019-05-01T08:48:35.911Z,95564.89
2019-05-01T08:49:49.553Z,95565.42
2019-05-01T08:50:47.672Z,95566.75
2019-05-01T08:51:51.371Z,95567.47
2019-05-01T08:52:54.991Z,95567.67
2019-05-01T08:53:59.555Z,95572.19
2019-05-01T08:55:04.330Z,95573.67
2019-05-01T08:56:09.856Z,95570.84
2019-05-01T08:57:13.473Z,95574.41
2019-05-01T08:58:17.054Z,95575.13
2019-05-01T08:59:23.995Z,95573.62
2019-05-01T09:00:26.369Z,95576.03
2019-05-01T09:01:29.996Z,95573.72
2019-05-01T09:02:36.827Z,95569.57
2019-05-01T09:03:38.967Z,95568.58
2019-05-01T09:04:42.676Z,95568.98
2019-05-01T09:05:46.222Z,95561.10
2019-05-01T09:06:49.667Z,95566.38
2019-05-01T09:07:55.954Z,95566.91
2019-05-01T09:08:58.347Z,95569.47
2019-05-01T09:10:01.858Z,95570.70
2019-05-01T09:11:05.663Z,95573.06
2019-05-01T09:12:11.788Z,95572.58
2019-05-01T09:13:18.811Z,95572.13
2019-05-01T09:14:21.024Z,95570.95
2019-05-01T09:15:24.836Z,95566.27
2019-05-01T09:16:30.184Z,95562.54
2019-05-01T09:17:34.470Z,95562.53
2019-05-01T09:18:37.995Z,95557.47
2019-05-01T09:19:41.631Z,95557.20
2019-05-01T09:20:47.360Z,95555.05
2019-05-01T09:21:51.249Z,95556.36
2019-05-01T09:22:54.729Z,95559.96
2019-05-01T09:23:58.295Z,95555.12
2019-05-01T09:25:02.047Z,95555.16
2019-05-01T09:26:22.277Z,95549.33
2019-05-01T09:27:29.519Z,95548.97
2019-05-01T09:28:35.975Z,95545.33
2019-05-01T09:29:46.940Z,95551.33
2019-05-01T09:31:01.347Z,95546.53
2019-05-01T09:32:05.097Z,95552.48
2019-05-01T09:33:07.882Z,95555.73
2019-05-01T09:34:13.949Z,95555.06
2019-05-01T09:35:19.628Z,95558.40
2019-05-01T09:36:22.091Z,95554.59
2019-05-01T09:37:25.744Z,95550.56
2019-05-01T09:38:29.519Z,95554.98
2019-05-01T09:39:34.575Z,95552.34
2019-05-01T09:40:38.167Z,95552.85
2019-05-01T09:41:43.029Z,95544.03
2019-05-01T09:42:46.965Z,95552.16
2019-05-01T09:43:50.562Z,95543.52
2019-05-01T09:44:54.162Z,95546.16
2019-05-01T09:45:57.743Z,95548.97
2019-05-01T09:47:01.284Z,95544.13
2019-05-01T09:48:05.878Z,95542.62
2019-05-01T09:49:09.391Z,95546.94
2019-05-01T09:50:13.011Z,95542.41
2019-05-01T09:51:18.111Z,95541.43
2019-05-01T09:52:26.269Z,95539.66
2019-05-01T09:53:37.541Z,95541.94
2019-05-01T09:54:43.065Z,95536.15
2019-05-01T09:55:49.492Z,95533.11
2019-05-01T09:56:53.000Z,95531.89
2019-05-01T09:57:56.534Z,95536.78
2019-05-01T09:59:00.059Z,95535.34
2019-05-01T10:00:07.327Z,95531.16
2019-05-01T10:01:11.004Z,95531.80
2019-05-01T10:02:14.691Z,95523.36
2019-05-01T10:03:18.368Z,95531.38
2019-05-01T10:04:25.226Z,95532.56
2019-05-01T10:05:29.034Z,95533.33
2019-05-01T10:06:32.297Z,95530.52
2019-05-01T10:07:35.690Z,95537.75
2019-05-01T10:08:40.038Z,95542.48
2019-05-01T10:09:47.223Z,95538.95
2019-05-01T10:10:49.646Z,95534.39
2019-05-01T10:11:53.160Z,95527.34
2019-05-01T10:12:56.659Z,95531.83
2019-05-01T10:14:00.224Z,95527.03
2019-05-01T10:15:05.199Z,95523.98
2019-05-01T10:16:08.823Z,95527.23
2019-05-01T10:17:13.588Z,95523.18
2019-05-01T10:18:17.056Z,95530.64
2019-05-01T10:19:20.550Z,95533.77
2019-05-01T10:20:24.133Z,95532.99
2019-05-01T10:21:28.953Z,95534.42
2019-05-01T10:22:37.132Z,95526.27
2019-05-01T10:23:37.766Z,95517.64
2019-05-01T10:24:41.301Z,95515.41
2019-05-01T10:25:47.915Z,95516.44
2019-05-01T10:26:55.107Z,95521.04
2019-05-01T10:28:00.126Z,95523.08
2019-05-01T10:29:05.365Z,95518.52
2019-05-01T10:30:26.586Z,95516.66
2019-05-01T10:31:47.746Z,95516.84
2019-05-01T10:32:59.700Z,95512.36
2019-05-01T10:34:13.363Z,95512.00
2019-05-01T10:35:21.124Z,95512.19
2019-05-01T10:36:32.032Z,95513.47
2019-05-01T10:37:35.579Z,95514.50
2019-05-01T10:38:39.867Z,95511.63
2019-05-01T10:39:44.241Z,95505.70
2019-05-01T10:40:47.704Z,95507.48
2019-05-01T10:41:51.209Z,95506.40
2019-05-01T10:42:54.821Z,95512.00
2019-05-01T10:43:58.366Z,95508.67
2019-05-01T10:45:01.809Z,95498.91
2019-05-01T10:46:05.350Z,95498.77
2019-05-01T10:47:08.780Z,95498.46
2019-05-01T10:48:12.300Z,95493.31
2019-05-01T10:49:15.927Z,95491.88
2019-05-01T10:50:19.543Z,95487.09
2019-05-01T10:51:23.046Z,95488.09
2019-05-01T10:52:26.434Z,95490.13
2019-05-01T10:53:29.927Z,95489.53
2019-05-01T10:54:33.473Z,95485.33
2019-05-01T10:55:36.947Z,95491.61
2019-05-01T10:56:40.623Z,95495.55
2019-05-01T10:57:44.055Z,95484.64
2019-05-01T10:58:47.505Z,95491.64
2019-05-01T10:59:50.951Z,95483.86
2019-05-01T11:01:05.105Z,95484.27
2019-05-01T11:02:10.337Z,95491.22
2019-05-01T11:03:13.933Z,95488.05
2019-05-01T11:04:17.447Z,95489.70
2019-05-01T11:05:20.949Z,95480.53
2019-05-01T11:06:24.552Z,95482.19
2019-05-01T11:07:28.037Z,95476.10
2019-05-01T11:08:31.578Z,95486.52
2019-05-01T11:09:35.022Z,95482.88
2019-05-01T11:10:38.493Z,95481.90
2019-05-01T11:11:42.047Z,95487.92
2019-05-01T11:12:45.487Z,95491.41
2019-05-01T11:13:49.002Z,95472.81
2019-05-01T11:14:52.581Z,95476.57
2019-05-01T11:15:56.187Z,95471.17
2019-05-01T11:16:59.694Z,95474.07
2019-05-01T11:18:03.291Z,95476.75
2019-05-01T11:19:06.798Z,95470.94
2019-05-01T11:20:10.381Z,95470.18
2019-05-01T11:21:13.938Z,95467.70
2019-05-01T11:22:17.395Z,95460.80
2019-05-01T11:23:20.856Z,95458.72
2019-05-01T11:24:24.376Z,95463.55
2019-05-01T11:25:28.211Z,95463.91
2019-05-01T11:26:31.821Z,95464.52
2019-05-01T11:27:35.259Z,95463.09
2019-05-01T11:28:38.694Z,95459.69
2019-05-01T11:29:42.564Z,95450.87
2019-05-01T11:30:46.077Z,95450.20
2019-05-01T11:31:51.311Z,95454.88
2019-05-01T11:32:56.456Z,95448.13
2019-05-01T11:34:02.051Z,95455.81
2019-05-01T11:35:09.007Z,95453.09
2019-05-01T11:36:23.244Z,95454.70
2019-05-01T11:37:34.428Z,95459.70
2019-05-01T11:38:39.638Z,95449.97
2019-05-01T11:39:44.922Z,95456.11
2019-05-01T11:40:52.494Z,95451.08
2019-05-01T11:42:00.477Z,95459.09
2019-05-01T11:43:04.089Z,95457.30
2019-05-01T11:44:07.653Z,95450.10
2019-05-01T11:45:11.378Z,95448.38
2019-05-01T11:46:15.039Z,95445.20
2019-05-01T11:47:18.550Z,95451.91
2019-05-01T11:48:25.028Z,95452.62
2019-05-01T11:49:27.234Z,95451.66
2019-05-01T11:50:30.667Z,95448.99
2019-05-01T11:51:34.244Z,95446.82
2019-05-01T11:52:37.709Z,95450.23
2019-05-01T11:53:41.404Z,95444.42
2019-05-01T11:54:44.927Z,95444.71
2019-05-01T11:55:48.445Z,95449.90
2019-05-01T11:56:51.993Z,95450.23
2019-05-01T11:57:55.522Z,95450.09
2019-05-01T11:58:59.032Z,95451.95
2019-05-01T12:00:02.572Z,95446.64
2019-05-01T12:01:06.389Z,95445.83
2019-05-01T12:02:09.973Z,95447.00
2019-05-01T12:03:13.627Z,95452.34
2019-05-01T12:04:17.136Z,95448.73
2019-05-01T12:05:20.644Z,95449.52
2019-05-01T12:06:24.088Z,95442.44
2019-05-01T12:07:27.689Z,95449.02
2019-05-01T12:08:31.137Z,95442.80
2019-05-01T12:09:34.666Z,95449.27
2019-05-01T12:10:38.255Z,95445.98
2019-05-01T12:11:43.400Z,95443.23
2019-05-01T12:12:46.924Z,95448.62
2019-05-01T12:13:50.331Z,95440.22
2019-05-01T12:14:53.765Z,95421.08
2019-05-01T12:16:04.666Z,95431.36
2019-05-01T12:17:09.825Z,95430.61
2019-05-01T12:18:13.424Z,95433.89
2019-05-01T12:19:16.936Z,95429.46
2019-05-01T12:20:21.187Z,95425.31
2019-05-01T12:21:24.629Z,95429.93
2019-05-01T12:22:28.094Z,95426.80
2019-05-01T12:23:31.586Z,95423.98
2019-05-01T12:24:35.015Z,95428.23
2019-05-01T12:25:38.463Z,95423.25
2019-05-01T12:26:41.922Z,95430.25
2019-05-01T12:27:45.361Z,95424.02
2019-05-01T12:28:48.886Z,95430.00
2019-05-01T12:29:52.468Z,95426.11
2019-05-01T12:30:55.928Z,95429.77
2019-05-01T12:31:59.454Z,95425.52
2019-05-01T12:33:02.984Z,95422.97
2019-05-01T12:34:06.525Z,95422.39
2019-05-01T12:35:10.137Z,95417.50
2019-05-01T12:36:13.671Z,95415.74
2019-05-01T12:37:27.832Z,95414.81
2019-05-01T12:38:31.289Z,95420.30
2019-05-01T12:39:34.743Z,95418.83
2019-05-01T12:40:38.198Z,95419.87
2019-05-01T12:41:48.684Z,95415.42
2019-05-01T12:42:52.131Z,95422.08
2019-05-01T12:43:55.723Z,95416.19
2019-05-01T12:44:59.327Z,95414.86
2019-05-01T12:46:02.911Z,95410.03
2019-05-01T12:47:16.795Z,95418.98
2019-05-01T12:48:20.227Z,95421.36
2019-05-01T12:49:23.676Z,95414.06
2019-05-01T12:50:27.492Z,95409.42
2019-05-01T12:51:31.096Z,95417.11